createdAt,value
2023-01-23T00:01:18.140Z,26.60
2023-01-23T00:03:45.742Z,25.83
2023-01-23T00:06:15.778Z,26.38
2023-01-23T00:08:44.490Z,25.10
2023-01-23T00:11:14.744Z,26.08
2023-01-23T00:13:41.524Z,26.08
2023-01-23T00:16:12.000Z,25.55
2023-01-23T00:18:39.247Z,25.67
2023-01-23T00:21:08.341Z,28.00
2023-01-23T00:23:35.438Z,22.95
2023-01-23T00:26:04.916Z,29.52
2023-01-23T00:28:32.138Z,30.00
2023-01-23T00:31:09.393Z,27.17
2023-01-23T00:33:36.316Z,29.60
2023-01-23T00:36:03.737Z,25.98
2023-01-23T00:38:30.492Z,28.35
2023-01-23T00:40:57.477Z,29.77
2023-01-23T00:43:25.308Z,25.52
2023-01-23T00:45:51.996Z,27.77
2023-01-23T00:48:19.269Z,29.58
2023-01-23T00:50:46.870Z,31.63
2023-01-23T00:53:13.648Z,30.50
2023-01-23T00:55:41.437Z,27.50
2023-01-23T00:58:08.910Z,30.33
2023-01-23T01:00:37.165Z,31.15
2023-01-23T01:03:05.044Z,30.83
2023-01-23T01:05:32.545Z,29.65
2023-01-23T01:07:59.730Z,27.90
2023-01-23T01:10:30.394Z,29.80
2023-01-23T01:12:59.927Z,29.75
2023-01-23T01:15:28.760Z,29.58
2023-01-23T01:17:55.541Z,33.17
2023-01-23T01:20:23.866Z,31.42
2023-01-23T01:22:51.045Z,28.15
2023-01-23T01:25:18.663Z,30.25
2023-01-23T01:27:45.948Z,29.58
2023-01-23T01:30:13.182Z,31.42
2023-01-23T01:32:41.734Z,30.13
2023-01-23T01:35:09.602Z,31.60
2023-01-23T01:37:38.445Z,29.95
2023-01-23T01:40:07.284Z,23.58
2023-01-23T01:42:48.530Z,29.48
2023-01-23T01:45:52.774Z,28.58
2023-01-23T01:48:21.610Z,27.13
2023-01-23T01:50:48.666Z,27.20
2023-01-23T01:53:16.213Z,26.73
2023-01-23T01:55:43.534Z,29.42
2023-01-23T01:58:10.584Z,25.95
2023-01-23T02:00:37.317Z,27.92
2023-01-23T02:03:04.310Z,27.83
2023-01-23T02:05:37.867Z,28.23
2023-01-23T02:08:14.681Z,28.33
2023-01-23T02:10:43.088Z,30.90
2023-01-23T02:13:30.373Z,27.45
2023-01-23T02:15:59.354Z,31.55
2023-01-23T02:18:29.831Z,28.60
2023-01-23T02:20:58.674Z,29.05
2023-01-23T02:23:34.631Z,23.30
2023-01-23T02:26:05.559Z,30.67
2023-01-23T02:28:42.614Z,28.75
2023-01-23T02:31:10.392Z,29.15
2023-01-23T02:33:37.148Z,30.45
2023-01-23T02:36:05.545Z,30.17
2023-01-23T02:39:04.325Z,27.83
2023-01-23T02:41:34.084Z,29.00
2023-01-23T02:44:07.182Z,27.70
2023-01-23T02:46:34.227Z,29.10
2023-01-23T02:49:01.296Z,29.15
2023-01-23T02:51:28.366Z,29.88
2023-01-23T02:53:56.288Z,29.10
2023-01-23T02:56:23.383Z,31.92
2023-01-23T02:59:11.107Z,30.05
2023-01-23T03:01:37.834Z,30.08
2023-01-23T03:04:06.376Z,34.08
2023-01-23T03:06:38.383Z,28.33
2023-01-23T03:09:08.464Z,30.45
2023-01-23T03:11:36.815Z,30.75
2023-01-23T03:14:04.175Z,30.00
2023-01-23T03:16:32.827Z,31.52
2023-01-23T03:19:04.982Z,30.52
2023-01-23T03:21:33.250Z,32.60
2023-01-23T03:24:00.394Z,31.88
2023-01-23T03:26:27.220Z,33.08
2023-01-23T03:29:17.492Z,28.55
2023-01-23T03:31:44.445Z,27.05
2023-01-23T03:34:12.433Z,28.58
2023-01-23T03:36:41.086Z,30.10
2023-01-23T03:39:27.790Z,28.02
2023-01-23T03:41:54.836Z,29.23
2023-01-23T03:44:21.625Z,27.42
2023-01-23T03:46:50.225Z,29.00
2023-01-23T03:49:17.784Z,30.95
2023-01-23T03:51:45.122Z,28.60
2023-01-23T03:54:12.780Z,33.10
2023-01-23T03:56:39.615Z,30.77
2023-01-23T03:59:09.386Z,29.95
2023-01-23T04:01:38.319Z,28.52
2023-01-23T04:04:06.337Z,32.93
2023-01-23T04:06:33.213Z,31.52
2023-01-23T04:09:00.200Z,29.80
2023-01-23T04:11:27.053Z,29.25
2023-01-23T04:13:54.813Z,30.10
2023-01-23T04:16:22.870Z,33.03
2023-01-23T04:18:50.862Z,30.13
2023-01-23T04:21:18.334Z,29.25
2023-01-23T04:23:45.480Z,30.77
2023-01-23T04:26:13.035Z,30.90
2023-01-23T04:28:39.885Z,33.40
2023-01-23T04:31:09.270Z,33.10
2023-01-23T04:33:39.355Z,33.22
2023-01-23T04:38:34.807Z,32.85
2023-01-23T04:41:01.963Z,33.47
2023-01-23T04:43:28.996Z,32.83
2023-01-23T04:45:56.933Z,31.08
2023-01-23T04:48:24.638Z,32.22
2023-01-23T04:50:51.723Z,30.15
2023-01-23T04:53:19.106Z,31.58
2023-01-23T04:55:49.726Z,32.67
2023-01-23T04:58:18.942Z,31.30
2023-01-23T05:00:48.528Z,32.67
2023-01-23T05:03:16.008Z,32.17
2023-01-23T05:05:44.292Z,31.17
2023-01-23T05:08:14.450Z,34.28
2023-01-23T05:10:41.455Z,31.35
2023-01-23T05:13:10.279Z,32.05
2023-01-23T05:15:37.202Z,30.42
2023-01-23T05:18:04.281Z,32.45
2023-01-23T05:20:31.245Z,31.63
2023-01-23T05:23:05.456Z,35.25
2023-01-23T05:25:32.348Z,33.67
2023-01-23T05:27:59.852Z,32.00
2023-01-23T05:30:26.814Z,35.72
2023-01-23T05:32:53.825Z,32.08
2023-01-23T05:35:21.743Z,34.70
2023-01-23T05:37:51.555Z,36.08
2023-01-23T05:42:48.421Z,34.15
2023-01-23T05:45:16.989Z,32.95
2023-01-23T05:47:44.196Z,35.10
2023-01-23T05:50:17.910Z,33.85
2023-01-23T05:52:46.412Z,34.65
2023-01-23T05:55:13.610Z,34.28
2023-01-23T05:57:40.449Z,33.20
2023-01-23T06:00:08.269Z,35.70
2023-01-23T06:02:35.678Z,30.60
2023-01-23T06:05:02.708Z,33.15
2023-01-23T06:07:29.927Z,34.45
2023-01-23T06:09:58.044Z,36.38
2023-01-23T06:12:25.318Z,34.20
2023-01-23T06:14:54.438Z,31.98
2023-01-23T06:17:21.190Z,35.92
2023-01-23T06:19:48.533Z,33.13
2023-01-23T06:22:15.334Z,37.72
2023-01-23T06:24:42.348Z,34.45
2023-01-23T06:27:09.472Z,36.28
2023-01-23T06:29:37.423Z,34.65
2023-01-23T06:32:04.888Z,34.72
2023-01-23T06:34:31.920Z,38.40
2023-01-23T06:37:01.358Z,33.92
2023-01-23T06:39:30.165Z,38.75
2023-01-23T06:41:57.336Z,35.58
2023-01-23T06:44:25.382Z,33.83
2023-01-23T06:46:57.223Z,34.63
2023-01-23T06:49:27.358Z,34.88
2023-01-23T06:51:55.417Z,34.65
2023-01-23T06:54:25.025Z,33.72
2023-01-23T06:56:52.993Z,33.45
2023-01-23T06:59:20.078Z,33.97
2023-01-23T07:01:54.670Z,34.78
2023-01-23T07:04:21.493Z,34.22
2023-01-23T07:06:48.499Z,31.88
2023-01-23T07:09:15.531Z,30.83
2023-01-23T07:11:42.568Z,34.35
2023-01-23T07:14:10.428Z,35.50
2023-01-23T07:16:38.408Z,34.33
2023-01-23T07:19:08.240Z,35.45
2023-01-23T07:24:02.793Z,32.90
2023-01-23T07:26:30.665Z,31.73
2023-01-23T07:29:00.198Z,35.40
2023-01-23T07:31:33.205Z,35.08
2023-01-23T07:33:59.908Z,33.72
2023-01-23T07:36:26.992Z,34.03
2023-01-23T07:38:56.459Z,33.67
2023-01-23T07:41:23.492Z,32.75
2023-01-23T07:43:54.716Z,32.20
2023-01-23T07:46:23.666Z,34.05
2023-01-23T07:48:51.027Z,26.70
2023-01-23T07:51:17.983Z,32.92
2023-01-23T07:53:44.903Z,37.15
2023-01-23T07:56:13.395Z,30.15
2023-01-23T07:58:41.531Z,31.48
2023-01-23T08:01:10.751Z,34.92
2023-01-23T08:03:37.671Z,33.17
2023-01-23T08:06:04.834Z,33.05
2023-01-23T08:08:31.825Z,32.45
2023-01-23T08:10:59.044Z,37.53
2023-01-23T08:13:25.860Z,33.50
2023-01-23T08:15:57.344Z,30.25
2023-01-23T08:18:25.793Z,30.55
2023-01-23T08:21:03.061Z,36.20
2023-01-23T08:23:33.505Z,36.03
2023-01-23T08:26:03.235Z,35.38
2023-01-23T08:28:30.827Z,39.05
2023-01-23T08:31:06.691Z,33.10
2023-01-23T08:33:35.203Z,36.10
2023-01-23T08:36:04.377Z,35.40
2023-01-23T08:38:31.931Z,32.47
2023-01-23T08:41:01.457Z,32.47
2023-01-23T08:43:33.367Z,32.42
2023-01-23T08:46:03.235Z,34.47
2023-01-23T08:51:08.065Z,29.80
2023-01-23T08:53:36.802Z,28.85
2023-01-23T08:56:06.149Z,32.05
2023-01-23T08:58:33.309Z,28.85
2023-01-23T09:01:00.620Z,29.40
2023-01-23T09:03:28.458Z,30.30
2023-01-23T09:06:02.209Z,23.92
2023-01-23T09:08:30.196Z,30.58
2023-01-23T09:11:01.449Z,28.73
2023-01-23T09:13:28.618Z,29.83
2023-01-23T09:15:58.431Z,24.02
2023-01-23T09:20:55.842Z,29.08
2023-01-23T09:23:23.395Z,26.48
2023-01-23T09:25:51.353Z,27.58
2023-01-23T09:28:18.465Z,26.83
2023-01-23T09:30:45.234Z,27.38
2023-01-23T09:33:14.458Z,25.05
2023-01-23T09:35:41.176Z,29.50
2023-01-23T09:38:09.068Z,25.92
2023-01-23T09:40:45.775Z,24.05
2023-01-23T09:43:34.304Z,28.63
2023-01-23T09:46:02.160Z,23.15
2023-01-23T09:48:45.515Z,25.77
2023-01-23T09:51:24.715Z,25.85
2023-01-23T09:53:58.126Z,20.05
2023-01-23T09:56:44.824Z,27.52
2023-01-23T09:59:38.880Z,25.45
2023-01-23T10:02:22.046Z,25.52
2023-01-23T10:04:51.391Z,27.13
2023-01-23T10:07:33.235Z,24.73
2023-01-23T10:10:29.557Z,24.70
2023-01-23T10:13:02.697Z,27.55
2023-01-23T10:15:32.284Z,27.10
2023-01-23T10:18:22.777Z,26.52
2023-01-23T10:21:05.863Z,24.63
2023-01-23T10:23:53.004Z,24.33
2023-01-23T10:26:23.820Z,29.58
2023-01-23T10:28:56.282Z,26.98
2023-01-23T10:31:35.792Z,27.35
2023-01-23T10:34:17.611Z,24.13
2023-01-23T10:36:56.722Z,25.63
2023-01-23T10:39:40.005Z,25.80
2023-01-23T10:42:16.616Z,26.85
2023-01-23T10:44:47.016Z,28.70
2023-01-23T10:47:37.091Z,27.42
2023-01-23T10:50:06.943Z,28.38
2023-01-23T10:52:37.041Z,26.73
2023-01-23T10:55:28.083Z,25.67
2023-01-23T10:58:03.128Z,28.63
2023-01-23T11:00:39.633Z,28.65
2023-01-23T11:03:21.920Z,27.25
2023-01-23T11:05:56.898Z,26.48
2023-01-23T11:08:29.607Z,27.08
2023-01-23T11:11:15.689Z,26.13
2023-01-23T11:13:47.037Z,28.02
2023-01-23T11:16:23.910Z,26.33
2023-01-23T11:19:03.896Z,28.10
2023-01-23T11:24:39.913Z,24.38
2023-01-23T11:27:14.883Z,27.17
2023-01-23T11:30:01.164Z,24.17
2023-01-23T11:32:32.065Z,23.80
2023-01-23T11:35:19.978Z,25.45
2023-01-23T11:37:46.966Z,27.75
2023-01-23T11:40:18.174Z,23.20
2023-01-23T11:42:45.679Z,25.42
2023-01-23T11:45:43.686Z,21.15
2023-01-23T11:48:19.791Z,22.40
2023-01-23T11:50:55.975Z,25.15
2023-01-23T11:53:50.082Z,22.60
2023-01-23T11:56:35.080Z,25.90
2023-01-23T11:59:47.237Z,24.65
2023-01-23T12:02:19.803Z,26.42
2023-01-23T12:05:14.060Z,26.73
2023-01-23T12:08:16.218Z,25.60
2023-01-23T12:10:49.953Z,28.65
2023-01-23T12:13:45.674Z,25.85
2023-01-23T12:16:27.322Z,28.50
2023-01-23T12:19:16.367Z,26.65
2023-01-23T12:22:01.602Z,24.03
2023-01-23T12:24:31.456Z,23.42
2023-01-23T12:30:09.279Z,26.65
2023-01-23T12:33:17.354Z,23.98
2023-01-23T12:35:47.297Z,22.40
2023-01-23T12:38:23.198Z,26.88
2023-01-23T12:41:07.487Z,22.77
2023-01-23T12:43:34.295Z,23.58
2023-01-23T12:46:11.799Z,21.00
2023-01-23T12:48:47.032Z,25.02
2023-01-23T12:51:50.799Z,22.52
2023-01-23T12:54:29.102Z,26.52
2023-01-23T12:56:59.393Z,24.15
2023-01-23T12:59:50.206Z,24.92
2023-01-23T13:02:33.994Z,23.25
2023-01-23T13:05:09.071Z,25.48
2023-01-23T13:07:42.817Z,25.05
2023-01-23T13:10:51.346Z,23.73
2023-01-23T13:13:21.390Z,25.73
2023-01-23T13:16:19.330Z,24.63
2023-01-23T13:19:16.291Z,24.65
2023-01-23T13:22:27.424Z,24.75
2023-01-23T13:25:13.044Z,27.58
2023-01-23T13:27:49.360Z,25.65
2023-01-23T13:30:39.355Z,24.35
2023-01-23T13:33:06.368Z,24.23
2023-01-23T13:35:44.539Z,24.48
2023-01-23T13:38:38.983Z,22.75
2023-01-23T13:41:11.384Z,22.02
2023-01-23T13:43:50.678Z,24.35
2023-01-23T14:21:57.822Z,22.08
2023-01-23T14:24:44.877Z,25.45
2023-01-23T14:27:53.275Z,25.27
2023-01-23T14:30:24.878Z,27.10
2023-01-23T14:32:52.968Z,24.60
2023-01-23T14:35:26.112Z,25.13
2023-01-23T14:37:55.490Z,22.85
2023-01-23T14:40:28.280Z,25.92
2023-01-23T14:43:03.687Z,26.85
2023-01-23T14:45:33.942Z,24.42
2023-01-23T14:48:06.667Z,23.30
2023-01-23T14:50:34.335Z,22.55
2023-01-23T14:53:06.983Z,25.00
2023-01-23T14:55:40.730Z,24.27
2023-01-23T14:58:13.020Z,20.45
2023-01-23T15:00:41.487Z,26.05
2023-01-23T15:03:12.524Z,22.48
2023-01-23T15:05:40.986Z,27.92
2023-01-23T15:08:24.478Z,22.92
2023-01-23T15:10:53.605Z,27.38
2023-01-23T15:13:24.500Z,26.10
2023-01-23T15:16:01.272Z,22.85
2023-01-23T15:18:30.560Z,24.95
2023-01-23T15:21:08.956Z,20.73
2023-01-23T15:23:40.873Z,22.20
2023-01-23T15:26:25.615Z,20.27
2023-01-23T15:29:00.267Z,19.45
2023-01-23T15:31:34.647Z,20.13
2023-01-23T15:34:16.886Z,16.73
2023-01-23T15:37:13.228Z,22.95
2023-01-23T15:39:55.589Z,21.88
2023-01-23T15:42:29.970Z,21.30
2023-01-23T15:45:01.165Z,21.08
2023-01-23T15:47:34.668Z,18.77
2023-01-23T15:50:01.820Z,23.33
2023-01-23T15:52:44.117Z,19.30
2023-01-23T15:55:11.813Z,17.75
2023-01-23T15:57:38.665Z,18.63
2023-01-23T16:00:15.844Z,17.75
2023-01-23T16:02:56.379Z,19.63
2023-01-23T16:05:30.956Z,17.80
2023-01-23T16:08:20.774Z,19.52
2023-01-23T16:13:19.668Z,17.88
2023-01-23T16:15:49.924Z,20.10
2023-01-23T16:18:17.061Z,18.83
2023-01-23T16:21:07.173Z,14.98
2023-01-23T16:23:47.128Z,15.32
2023-01-23T16:26:21.259Z,17.35
2023-01-23T16:28:49.197Z,16.45
2023-01-23T16:31:19.869Z,15.00
2023-01-23T16:33:48.945Z,17.10
2023-01-23T16:36:19.696Z,16.83
2023-01-23T16:38:52.519Z,17.35
2023-01-23T16:41:20.306Z,18.25
2023-01-23T16:43:47.499Z,17.42
2023-01-23T16:46:17.613Z,18.25
2023-01-23T16:48:46.697Z,19.65
2023-01-23T16:51:23.252Z,17.73
2023-01-23T16:53:53.875Z,16.02
2023-01-23T16:56:29.279Z,15.40
2023-01-23T16:58:57.469Z,16.88
2023-01-23T17:01:36.900Z,17.42
2023-01-23T17:04:04.491Z,16.13
2023-01-23T17:06:35.366Z,18.02
2023-01-23T17:09:08.674Z,18.23
2023-01-23T17:11:55.975Z,19.63
2023-01-23T17:14:30.747Z,19.80
2023-01-23T17:17:10.111Z,20.92
2023-01-23T17:19:47.085Z,18.80
2023-01-23T17:22:30.367Z,18.25
2023-01-23T17:25:00.504Z,19.13
2023-01-23T17:27:27.431Z,20.52
2023-01-23T17:29:54.099Z,20.88
2023-01-23T17:32:36.835Z,19.75
2023-01-23T17:35:08.118Z,19.92
2023-01-23T17:37:45.246Z,19.45
2023-01-23T17:40:16.645Z,21.27
2023-01-23T17:42:56.025Z,22.02
2023-01-23T17:45:28.159Z,21.45
2023-01-23T17:47:55.761Z,23.50
2023-01-23T17:50:25.628Z,22.17
2023-01-23T17:55:28.784Z,21.23
2023-01-23T17:57:56.821Z,22.55
2023-01-23T18:00:24.057Z,20.42
2023-01-23T18:03:07.847Z,22.20
2023-01-23T18:05:35.629Z,22.35
2023-01-23T18:08:02.715Z,20.60
2023-01-23T18:10:35.514Z,20.08
2023-01-23T18:13:35.345Z,22.95
2023-01-23T18:21:56.611Z,19.27
2023-01-23T18:24:28.389Z,20.50
2023-01-23T18:27:25.523Z,21.85
2023-01-23T18:30:31.054Z,19.83
2023-01-23T18:33:07.038Z,16.90
2023-01-23T18:36:12.679Z,15.23
2023-01-23T18:38:54.349Z,12.55
2023-01-23T18:41:30.724Z,17.85
2023-01-23T18:44:18.023Z,18.48
2023-01-23T18:46:55.494Z,17.50
2023-01-23T18:49:32.268Z,15.95
2023-01-23T18:52:18.122Z,18.33
2023-01-23T18:54:51.518Z,19.30
2023-01-23T18:57:38.089Z,18.73
2023-01-23T19:00:12.726Z,12.90
2023-01-23T19:02:50.206Z,18.35
2023-01-23T19:05:28.696Z,20.98
2023-01-23T19:07:59.979Z,17.88
2023-01-23T19:10:32.500Z,15.27
2023-01-23T19:13:29.568Z,14.95
2023-01-23T19:16:08.426Z,20.38
2023-01-23T19:18:50.499Z,18.35
2023-01-23T19:21:28.147Z,18.77
2023-01-23T19:24:03.647Z,21.85
2023-01-23T19:26:35.869Z,22.00
2023-01-23T19:29:20.863Z,21.95
2023-01-23T19:32:06.031Z,22.15
2023-01-23T19:34:34.925Z,22.02
2023-01-23T19:37:05.545Z,22.75
2023-01-23T19:39:44.111Z,22.80
2023-01-23T19:42:33.805Z,23.13
2023-01-23T19:47:53.429Z,23.88
2023-01-23T19:50:23.517Z,23.90
2023-01-23T19:52:56.767Z,24.10
2023-01-23T19:55:36.172Z,25.40
2023-01-23T19:58:02.935Z,23.52
2023-01-23T20:00:48.934Z,20.98
2023-01-23T20:03:18.816Z,22.48
2023-01-23T20:08:14.607Z,21.80
2023-01-23T20:10:47.028Z,23.58
2023-01-23T20:13:16.917Z,21.92
2023-01-23T20:18:38.393Z,20.27
2023-01-23T20:23:40.480Z,20.20
2023-01-23T20:26:07.481Z,18.73
2023-01-23T20:28:34.595Z,19.58
2023-01-23T20:31:32.495Z,18.83
2023-01-23T20:36:28.747Z,19.27
2023-01-23T20:38:56.895Z,19.73
2023-01-23T20:41:23.691Z,18.35
2023-01-23T20:46:28.041Z,19.83
2023-01-23T20:48:55.837Z,20.83
2023-01-23T20:51:22.444Z,19.15
2023-01-23T20:53:50.295Z,21.13
2023-01-23T20:56:27.498Z,20.65
2023-01-23T20:59:16.379Z,20.40
2023-01-23T21:04:26.301Z,21.00
2023-01-23T21:06:55.174Z,20.15
2023-01-23T21:09:24.993Z,22.90
2023-01-23T21:14:35.501Z,22.73
2023-01-23T21:17:08.914Z,20.88
2023-01-23T21:19:37.537Z,20.15
2023-01-23T21:22:10.344Z,22.65
2023-01-23T21:24:42.989Z,23.38
2023-01-23T21:27:15.686Z,23.48
2023-01-23T21:29:48.419Z,24.80
2023-01-23T21:32:16.270Z,24.65
2023-01-23T21:34:45.069Z,23.63
2023-01-23T21:37:12.957Z,25.52
2023-01-23T21:39:46.246Z,22.65
2023-01-23T21:44:52.583Z,24.80
2023-01-23T21:47:27.290Z,23.17
2023-01-23T21:49:54.050Z,24.80
2023-01-23T21:52:23.080Z,23.92
2023-01-23T21:54:59.973Z,17.87
2023-01-23T21:57:27.807Z,25.42
2023-01-23T22:00:15.032Z,26.73
2023-01-23T22:02:49.774Z,25.90
2023-01-23T22:05:16.823Z,26.25
2023-01-23T22:07:43.923Z,24.33
2023-01-23T22:10:16.111Z,27.23
2023-01-23T22:12:42.877Z,26.88
2023-01-23T22:15:12.054Z,25.33
2023-01-23T22:17:41.071Z,28.30
2023-01-23T22:20:11.885Z,26.55
2023-01-23T22:22:54.035Z,28.95
2023-01-23T22:25:22.259Z,28.40
2023-01-23T22:27:50.550Z,28.73
2023-01-23T22:30:44.297Z,26.48
2023-01-23T22:38:39.467Z,27.77
2023-01-23T22:41:07.194Z,27.70
2023-01-23T22:43:35.216Z,26.42
2023-01-23T22:46:17.395Z,32.60
2023-01-23T22:48:46.549Z,29.83
2023-01-23T22:51:25.114Z,26.20
2023-01-23T22:53:53.438Z,28.80
2023-01-23T22:56:20.970Z,27.13
2023-01-23T22:58:52.439Z,29.30
2023-01-23T23:01:23.409Z,29.83
2023-01-23T23:03:57.498Z,29.13
2023-01-23T23:06:25.608Z,30.95
2023-01-23T23:11:35.175Z,26.90
2023-01-23T23:14:03.239Z,27.85
2023-01-23T23:16:32.088Z,25.50
2023-01-23T23:19:03.508Z,26.23
2023-01-23T23:21:36.107Z,28.40
2023-01-23T23:24:07.568Z,27.33
2023-01-23T23:26:40.299Z,31.95
2023-01-23T23:29:08.246Z,27.15
2023-01-23T23:31:51.964Z,27.80
2023-01-23T23:34:20.084Z,29.60
2023-01-23T23:36:53.300Z,32.53
2023-01-23T23:39:22.001Z,29.10
2023-01-23T23:41:53.954Z,31.35
2023-01-23T23:44:21.861Z,30.30
2023-01-23T23:46:57.964Z,31.42
2023-01-23T23:49:26.338Z,32.47
2023-01-23T23:51:58.687Z,30.48
2023-01-23T23:54:25.582Z,30.70
2023-01-23T23:56:53.478Z,30.67
2023-01-23T23:59:21.258Z,34.13
